sensor_id;sensor_type;location;lat;lon;timestamp;P1;durP1;ratioP1;P2;durP2;ratioP2
39098;SDS011;24844;52.380;7.018;2023-05-19T00:02:09;15.07;;;6.78;;
39098;SDS011;24844;52.380;7.018;2023-05-19T00:04:35;16.40;;;6.88;;
39098;SDS011;24844;52.380;7.018;2023-05-19T00:07:01;14.35;;;6.32;;
39098;SDS011;24844;52.380;7.018;2023-05-19T00:09:27;16.05;;;7.13;;
39098;SDS011;24844;52.380;7.018;2023-05-19T00:11:53;24.20;;;7.47;;
39098;SDS011;24844;52.380;7.018;2023-05-19T00:14:20;12.80;;;6.65;;
39098;SDS011;24844;52.380;7.018;2023-05-19T00:16:46;18.33;;;7.35;;
39098;SDS011;24844;52.380;7.018;2023-05-19T00:19:12;18.40;;;6.88;;
39098;SDS011;24844;52.380;7.018;2023-05-19T00:21:38;19.40;;;7.10;;
39098;SDS011;24844;52.380;7.018;2023-05-19T00:24:04;16.00;;;7.43;;
39098;SDS011;24844;52.380;7.018;2023-05-19T00:26:30;17.50;;;7.00;;
39098;SDS011;24844;52.380;7.018;2023-05-19T00:28:56;15.75;;;7.05;;
39098;SDS011;24844;52.380;7.018;2023-05-19T00:31:21;14.45;;;7.60;;
39098;SDS011;24844;52.380;7.018;2023-05-19T00:33:47;19.80;;;8.43;;
39098;SDS011;24844;52.380;7.018;2023-05-19T00:36:13;21.30;;;7.93;;
39098;SDS011;24844;52.380;7.018;2023-05-19T00:38:39;14.90;;;7.07;;
39098;SDS011;24844;52.380;7.018;2023-05-19T00:41:05;19.02;;;8.43;;
39098;SDS011;24844;52.380;7.018;2023-05-19T00:43:30;21.15;;;8.48;;
39098;SDS011;24844;52.380;7.018;2023-05-19T00:45:59;15.05;;;7.50;;
39098;SDS011;24844;52.380;7.018;2023-05-19T00:48:25;24.75;;;9.32;;
39098;SDS011;24844;52.380;7.018;2023-05-19T00:50:52;20.50;;;8.52;;
39098;SDS011;24844;52.380;7.018;2023-05-19T00:53:20;15.32;;;8.25;;
39098;SDS011;24844;52.380;7.018;2023-05-19T00:55:48;17.08;;;8.63;;
39098;SDS011;24844;52.380;7.018;2023-05-19T00:58:14;18.58;;;8.65;;
39098;SDS011;24844;52.380;7.018;2023-05-19T01:00:41;15.77;;;8.38;;
39098;SDS011;24844;52.380;7.018;2023-05-19T01:03:08;23.30;;;9.23;;
39098;SDS011;24844;52.380;7.018;2023-05-19T01:05:38;18.88;;;9.40;;
39098;SDS011;24844;52.380;7.018;2023-05-19T01:08:05;16.52;;;8.27;;
39098;SDS011;24844;52.380;7.018;2023-05-19T01:10:31;21.48;;;8.93;;
39098;SDS011;24844;52.380;7.018;2023-05-19T01:12:57;13.60;;;6.57;;
39098;SDS011;24844;52.380;7.018;2023-05-19T01:15:23;16.75;;;8.20;;
39098;SDS011;24844;52.380;7.018;2023-05-19T01:18:13;18.97;;;8.33;;
39098;SDS011;24844;52.380;7.018;2023-05-19T01:20:38;16.38;;;7.50;;
39098;SDS011;24844;52.380;7.018;2023-05-19T01:26:00;26.30;;;10.65;;
39098;SDS011;24844;52.380;7.018;2023-05-19T01:28:52;26.48;;;11.48;;
39098;SDS011;24844;52.380;7.018;2023-05-19T01:31:36;28.30;;;11.40;;
39098;SDS011;24844;52.380;7.018;2023-05-19T01:34:04;21.92;;;9.38;;
39098;SDS011;24844;52.380;7.018;2023-05-19T01:36:31;18.45;;;8.98;;
39098;SDS011;24844;52.380;7.018;2023-05-19T01:38:58;23.52;;;9.07;;
39098;SDS011;24844;52.380;7.018;2023-05-19T01:41:26;16.50;;;9.02;;
39098;SDS011;24844;52.380;7.018;2023-05-19T01:43:53;19.52;;;9.30;;
39098;SDS011;24844;52.380;7.018;2023-05-19T01:46:19;14.93;;;8.95;;
39098;SDS011;24844;52.380;7.018;2023-05-19T01:48:45;17.73;;;9.65;;
39098;SDS011;24844;52.380;7.018;2023-05-19T01:51:12;16.20;;;8.10;;
39098;SDS011;24844;52.380;7.018;2023-05-19T01:53:37;19.10;;;8.85;;
39098;SDS011;24844;52.380;7.018;2023-05-19T01:56:03;17.38;;;8.65;;
39098;SDS011;24844;52.380;7.018;2023-05-19T02:06:40;19.10;;;8.52;;
39098;SDS011;24844;52.380;7.018;2023-05-19T02:12:10;14.68;;;8.25;;
39098;SDS011;24844;52.380;7.018;2023-05-19T02:14:49;20.10;;;10.27;;
39098;SDS011;24844;52.380;7.018;2023-05-19T02:17:34;21.17;;;9.52;;
39098;SDS011;24844;52.380;7.018;2023-05-19T02:20:04;19.83;;;10.73;;
39098;SDS011;24844;52.380;7.018;2023-05-19T02:22:30;12.32;;;8.63;;
39098;SDS011;24844;52.380;7.018;2023-05-19T02:24:56;20.08;;;9.10;;
39098;SDS011;24844;52.380;7.018;2023-05-19T02:27:22;22.15;;;11.35;;
39098;SDS011;24844;52.380;7.018;2023-05-19T02:29:48;19.65;;;11.15;;
39098;SDS011;24844;52.380;7.018;2023-05-19T02:32:14;22.70;;;11.07;;
39098;SDS011;24844;52.380;7.018;2023-05-19T02:34:39;25.75;;;12.27;;
39098;SDS011;24844;52.380;7.018;2023-05-19T02:37:11;26.85;;;12.13;;
39098;SDS011;24844;52.380;7.018;2023-05-19T02:39:37;513.97;;;54.45;;
39098;SDS011;24844;52.380;7.018;2023-05-19T02:42:03;35.80;;;14.15;;
39098;SDS011;24844;52.380;7.018;2023-05-19T02:44:29;38.90;;;15.02;;
39098;SDS011;24844;52.380;7.018;2023-05-19T02:46:54;31.73;;;14.55;;
39098;SDS011;24844;52.380;7.018;2023-05-19T02:49:20;45.33;;;16.45;;
39098;SDS011;24844;52.380;7.018;2023-05-19T02:51:45;37.58;;;15.65;;
39098;SDS011;24844;52.380;7.018;2023-05-19T02:54:11;33.53;;;15.63;;
39098;SDS011;24844;52.380;7.018;2023-05-19T02:56:36;33.47;;;14.77;;
39098;SDS011;24844;52.380;7.018;2023-05-19T02:59:02;37.70;;;15.90;;
39098;SDS011;24844;52.380;7.018;2023-05-19T03:01:27;36.35;;;17.58;;
39098;SDS011;24844;52.380;7.018;2023-05-19T03:03:53;25.80;;;13.93;;
39098;SDS011;24844;52.380;7.018;2023-05-19T03:06:18;24.15;;;13.23;;
39098;SDS011;24844;52.380;7.018;2023-05-19T03:08:47;24.90;;;12.15;;
39098;SDS011;24844;52.380;7.018;2023-05-19T03:11:13;29.35;;;13.30;;
39098;SDS011;24844;52.380;7.018;2023-05-19T03:13:39;23.38;;;11.45;;
39098;SDS011;24844;52.380;7.018;2023-05-19T03:16:05;24.00;;;11.68;;
39098;SDS011;24844;52.380;7.018;2023-05-19T03:18:32;25.77;;;13.02;;
39098;SDS011;24844;52.380;7.018;2023-05-19T03:20:58;26.98;;;13.50;;
39098;SDS011;24844;52.380;7.018;2023-05-19T03:23:23;33.90;;;14.90;;
39098;SDS011;24844;52.380;7.018;2023-05-19T03:25:50;31.63;;;14.52;;
39098;SDS011;24844;52.380;7.018;2023-05-19T03:28:18;37.33;;;16.38;;
39098;SDS011;24844;52.380;7.018;2023-05-19T03:30:43;32.80;;;14.40;;
39098;SDS011;24844;52.380;7.018;2023-05-19T03:33:09;32.80;;;14.98;;
39098;SDS011;24844;52.380;7.018;2023-05-19T03:35:35;26.73;;;14.57;;
39098;SDS011;24844;52.380;7.018;2023-05-19T03:38:00;30.92;;;15.20;;
39098;SDS011;24844;52.380;7.018;2023-05-19T03:40:26;30.70;;;14.85;;
39098;SDS011;24844;52.380;7.018;2023-05-19T03:42:51;27.67;;;15.52;;
39098;SDS011;24844;52.380;7.018;2023-05-19T03:45:18;32.08;;;15.38;;
39098;SDS011;24844;52.380;7.018;2023-05-19T03:47:44;25.23;;;12.43;;
39098;SDS011;24844;52.380;7.018;2023-05-19T03:50:11;28.15;;;14.13;;
39098;SDS011;24844;52.380;7.018;2023-05-19T03:52:37;29.13;;;14.25;;
39098;SDS011;24844;52.380;7.018;2023-05-19T03:55:04;24.02;;;12.80;;
39098;SDS011;24844;52.380;7.018;2023-05-19T03:57:30;24.33;;;14.32;;
39098;SDS011;24844;52.380;7.018;2023-05-19T03:59:57;24.25;;;12.90;;
39098;SDS011;24844;52.380;7.018;2023-05-19T04:02:23;31.50;;;15.63;;
39098;SDS011;24844;52.380;7.018;2023-05-19T04:04:48;32.33;;;16.10;;
39098;SDS011;24844;52.380;7.018;2023-05-19T04:07:15;28.67;;;14.57;;
39098;SDS011;24844;52.380;7.018;2023-05-19T04:09:40;26.05;;;15.48;;
39098;SDS011;24844;52.380;7.018;2023-05-19T04:12:06;28.00;;;16.10;;
39098;SDS011;24844;52.380;7.018;2023-05-19T04:14:32;32.03;;;17.63;;
39098;SDS011;24844;52.380;7.018;2023-05-19T04:16:57;25.05;;;14.65;;
39098;SDS011;24844;52.380;7.018;2023-05-19T04:19:23;24.27;;;14.40;;
39098;SDS011;24844;52.380;7.018;2023-05-19T04:21:49;20.08;;;12.65;;
39098;SDS011;24844;52.380;7.018;2023-05-19T04:24:15;28.98;;;15.48;;
39098;SDS011;24844;52.380;7.018;2023-05-19T04:26:40;20.35;;;12.20;;
39098;SDS011;24844;52.380;7.018;2023-05-19T04:29:09;22.00;;;11.88;;
39098;SDS011;24844;52.380;7.018;2023-05-19T04:31:37;20.55;;;12.68;;
39098;SDS011;24844;52.380;7.018;2023-05-19T04:34:04;18.65;;;10.55;;
39098;SDS011;24844;52.380;7.018;2023-05-19T04:36:31;20.70;;;10.23;;
39098;SDS011;24844;52.380;7.018;2023-05-19T04:38:58;14.23;;;9.63;;
39098;SDS011;24844;52.380;7.018;2023-05-19T04:41:30;13.65;;;8.73;;
39098;SDS011;24844;52.380;7.018;2023-05-19T04:43:57;14.10;;;8.55;;
39098;SDS011;24844;52.380;7.018;2023-05-19T04:46:23;13.02;;;8.35;;
39098;SDS011;24844;52.380;7.018;2023-05-19T04:48:50;14.20;;;7.75;;
39098;SDS011;24844;52.380;7.018;2023-05-19T04:51:17;11.80;;;7.30;;
39098;SDS011;24844;52.380;7.018;2023-05-19T04:53:43;15.38;;;8.13;;
39098;SDS011;24844;52.380;7.018;2023-05-19T04:56:09;15.60;;;7.75;;
39098;SDS011;24844;52.380;7.018;2023-05-19T04:58:39;10.05;;;6.78;;
39098;SDS011;24844;52.380;7.018;2023-05-19T05:01:05;11.45;;;6.35;;
39098;SDS011;24844;52.380;7.018;2023-05-19T05:03:31;15.77;;;8.23;;
39098;SDS011;24844;52.380;7.018;2023-05-19T05:05:58;8.73;;;5.82;;
39098;SDS011;24844;52.380;7.018;2023-05-19T05:08:24;12.43;;;6.57;;
39098;SDS011;24844;52.380;7.018;2023-05-19T05:10:49;10.43;;;6.28;;
39098;SDS011;24844;52.380;7.018;2023-05-19T05:13:20;13.38;;;6.45;;
39098;SDS011;24844;52.380;7.018;2023-05-19T05:15:47;14.90;;;7.80;;
39098;SDS011;24844;52.380;7.018;2023-05-19T05:18:13;12.00;;;6.53;;
39098;SDS011;24844;52.380;7.018;2023-05-19T05:20:40;11.80;;;6.55;;
39098;SDS011;24844;52.380;7.018;2023-05-19T05:23:09;10.38;;;6.63;;
39098;SDS011;24844;52.380;7.018;2023-05-19T05:25:38;13.93;;;7.03;;
39098;SDS011;24844;52.380;7.018;2023-05-19T05:28:08;12.30;;;6.80;;
39098;SDS011;24844;52.380;7.018;2023-05-19T05:30:34;12.10;;;7.22;;
39098;SDS011;24844;52.380;7.018;2023-05-19T05:33:00;14.13;;;7.03;;
39098;SDS011;24844;52.380;7.018;2023-05-19T05:35:26;13.50;;;6.80;;
39098;SDS011;24844;52.380;7.018;2023-05-19T05:37:52;20.10;;;8.07;;
39098;SDS011;24844;52.380;7.018;2023-05-19T05:40:17;17.02;;;7.38;;
39098;SDS011;24844;52.380;7.018;2023-05-19T05:42:43;15.05;;;7.20;;
39098;SDS011;24844;52.380;7.018;2023-05-19T05:45:09;13.50;;;8.18;;
39098;SDS011;24844;52.380;7.018;2023-05-19T05:47:35;19.42;;;8.07;;
39098;SDS011;24844;52.380;7.018;2023-05-19T05:50:05;13.25;;;6.80;;
39098;SDS011;24844;52.380;7.018;2023-05-19T05:52:32;17.23;;;7.60;;
39098;SDS011;24844;52.380;7.018;2023-05-19T05:54:59;11.90;;;6.80;;
39098;SDS011;24844;52.380;7.018;2023-05-19T05:57:25;18.02;;;7.85;;
39098;SDS011;24844;52.380;7.018;2023-05-19T06:02:20;18.80;;;7.75;;
39098;SDS011;24844;52.380;7.018;2023-05-19T06:04:45;14.02;;;6.63;;
39098;SDS011;24844;52.380;7.018;2023-05-19T06:07:11;13.38;;;5.95;;
39098;SDS011;24844;52.380;7.018;2023-05-19T06:09:36;12.90;;;6.82;;
39098;SDS011;24844;52.380;7.018;2023-05-19T06:12:02;15.32;;;6.97;;
39098;SDS011;24844;52.380;7.018;2023-05-19T06:14:28;10.55;;;7.13;;
39098;SDS011;24844;52.380;7.018;2023-05-19T06:16:54;17.13;;;7.10;;
39098;SDS011;24844;52.380;7.018;2023-05-19T06:19:20;11.02;;;6.28;;
39098;SDS011;24844;52.380;7.018;2023-05-19T06:21:45;12.10;;;6.75;;
39098;SDS011;24844;52.380;7.018;2023-05-19T06:24:11;15.10;;;6.25;;
39098;SDS011;24844;52.380;7.018;2023-05-19T06:26:36;12.50;;;6.40;;
39098;SDS011;24844;52.380;7.018;2023-05-19T06:29:02;14.70;;;7.07;;
39098;SDS011;24844;52.380;7.018;2023-05-19T06:31:28;12.85;;;6.57;;
39098;SDS011;24844;52.380;7.018;2023-05-19T06:33:53;12.75;;;6.50;;
39098;SDS011;24844;52.380;7.018;2023-05-19T06:36:19;10.43;;;5.68;;
39098;SDS011;24844;52.380;7.018;2023-05-19T06:38:45;16.58;;;6.70;;
39098;SDS011;24844;52.380;7.018;2023-05-19T06:41:10;11.35;;;5.22;;
39098;SDS011;24844;52.380;7.018;2023-05-19T06:43:36;14.15;;;5.63;;
39098;SDS011;24844;52.380;7.018;2023-05-19T06:46:02;9.10;;;5.10;;
39098;SDS011;24844;52.380;7.018;2023-05-19T06:48:28;8.65;;;4.90;;
39098;SDS011;24844;52.380;7.018;2023-05-19T06:50:53;11.10;;;4.43;;
39098;SDS011;24844;52.380;7.018;2023-05-19T06:53:19;13.73;;;4.70;;
39098;SDS011;24844;52.380;7.018;2023-05-19T06:55:45;9.93;;;4.50;;
39098;SDS011;24844;52.380;7.018;2023-05-19T06:58:14;10.63;;;4.03;;
39098;SDS011;24844;52.380;7.018;2023-05-19T07:00:40;9.20;;;3.53;;
39098;SDS011;24844;52.380;7.018;2023-05-19T07:03:05;9.10;;;3.53;;
39098;SDS011;24844;52.380;7.018;2023-05-19T07:05:31;9.57;;;3.25;;
39098;SDS011;24844;52.380;7.018;2023-05-19T07:07:56;8.30;;;3.17;;
39098;SDS011;24844;52.380;7.018;2023-05-19T07:10:22;9.13;;;3.65;;
39098;SDS011;24844;52.380;7.018;2023-05-19T07:12:47;7.28;;;2.72;;
39098;SDS011;24844;52.380;7.018;2023-05-19T07:15:13;8.13;;;2.90;;
39098;SDS011;24844;52.380;7.018;2023-05-19T07:17:38;9.57;;;3.10;;
39098;SDS011;24844;52.380;7.018;2023-05-19T07:20:04;6.65;;;3.15;;
39098;SDS011;24844;52.380;7.018;2023-05-19T07:22:31;10.10;;;3.42;;
39098;SDS011;24844;52.380;7.018;2023-05-19T07:24:59;8.18;;;3.10;;
39098;SDS011;24844;52.380;7.018;2023-05-19T07:27:24;10.82;;;3.38;;
39098;SDS011;24844;52.380;7.018;2023-05-19T07:29:50;7.43;;;2.83;;
39098;SDS011;24844;52.380;7.018;2023-05-19T07:32:16;8.90;;;2.60;;
39098;SDS011;24844;52.380;7.018;2023-05-19T07:34:41;11.27;;;3.17;;
39098;SDS011;24844;52.380;7.018;2023-05-19T07:37:07;5.72;;;2.53;;
39098;SDS011;24844;52.380;7.018;2023-05-19T07:39:33;8.13;;;2.80;;
39098;SDS011;24844;52.380;7.018;2023-05-19T07:41:59;7.13;;;2.70;;
39098;SDS011;24844;52.380;7.018;2023-05-19T07:44:25;9.02;;;3.38;;
39098;SDS011;24844;52.380;7.018;2023-05-19T07:46:51;8.52;;;2.97;;
39098;SDS011;24844;52.380;7.018;2023-05-19T07:49:18;6.40;;;2.85;;
39098;SDS011;24844;52.380;7.018;2023-05-19T07:51:44;10.00;;;3.30;;
39098;SDS011;24844;52.380;7.018;2023-05-19T07:54:10;8.32;;;2.88;;
39098;SDS011;24844;52.380;7.018;2023-05-19T07:56:36;9.82;;;2.97;;
39098;SDS011;24844;52.380;7.018;2023-05-19T07:59:02;8.38;;;2.65;;
39098;SDS011;24844;52.380;7.018;2023-05-19T08:01:28;8.07;;;2.63;;
39098;SDS011;24844;52.380;7.018;2023-05-19T08:03:54;6.97;;;2.30;;
39098;SDS011;24844;52.380;7.018;2023-05-19T08:06:20;6.55;;;2.42;;
39098;SDS011;24844;52.380;7.018;2023-05-19T08:08:46;6.53;;;2.50;;
39098;SDS011;24844;52.380;7.018;2023-05-19T08:11:12;10.13;;;2.90;;
39098;SDS011;24844;52.380;7.018;2023-05-19T08:13:38;8.63;;;2.25;;
39098;SDS011;24844;52.380;7.018;2023-05-19T08:16:03;12.52;;;2.78;;
39098;SDS011;24844;52.380;7.018;2023-05-19T08:18:29;9.57;;;2.80;;
39098;SDS011;24844;52.380;7.018;2023-05-19T08:20:55;10.35;;;2.50;;
39098;SDS011;24844;52.380;7.018;2023-05-19T08:23:21;6.28;;;2.00;;
39098;SDS011;24844;52.380;7.018;2023-05-19T08:25:46;5.15;;;1.83;;
39098;SDS011;24844;52.380;7.018;2023-05-19T08:28:12;6.20;;;1.90;;
39098;SDS011;24844;52.380;7.018;2023-05-19T08:30:38;5.45;;;1.27;;
39098;SDS011;24844;52.380;7.018;2023-05-19T08:33:03;6.88;;;2.05;;
39098;SDS011;24844;52.380;7.018;2023-05-19T08:35:29;5.65;;;1.73;;
39098;SDS011;24844;52.380;7.018;2023-05-19T08:37:55;10.80;;;2.20;;
39098;SDS011;24844;52.380;7.018;2023-05-19T08:40:21;5.72;;;1.60;;
39098;SDS011;24844;52.380;7.018;2023-05-19T08:42:47;7.65;;;1.88;;
39098;SDS011;24844;52.380;7.018;2023-05-19T08:45:13;5.45;;;1.67;;
39098;SDS011;24844;52.380;7.018;2023-05-19T08:47:39;4.53;;;1.67;;
39098;SDS011;24844;52.380;7.018;2023-05-19T08:50:06;5.53;;;1.92;;
39098;SDS011;24844;52.380;7.018;2023-05-19T08:55:40;7.45;;;1.98;;
39098;SDS011;24844;52.380;7.018;2023-05-19T08:58:23;5.25;;;1.52;;
39098;SDS011;24844;52.380;7.018;2023-05-19T09:00:48;4.80;;;1.20;;
39098;SDS011;24844;52.380;7.018;2023-05-19T09:03:15;7.10;;;1.70;;
39098;SDS011;24844;52.380;7.018;2023-05-19T09:05:42;7.90;;;1.80;;
39098;SDS011;24844;52.380;7.018;2023-05-19T09:08:09;6.93;;;2.00;;
39098;SDS011;24844;52.380;7.018;2023-05-19T09:10:35;6.45;;;1.98;;
39098;SDS011;24844;52.380;7.018;2023-05-19T09:13:01;7.53;;;1.85;;
39098;SDS011;24844;52.380;7.018;2023-05-19T09:15:26;5.68;;;1.90;;
39098;SDS011;24844;52.380;7.018;2023-05-19T09:18:08;9.77;;;1.65;;
39098;SDS011;24844;52.380;7.018;2023-05-19T09:20:38;9.63;;;1.80;;
39098;SDS011;24844;52.380;7.018;2023-05-19T09:23:05;7.15;;;2.10;;
39098;SDS011;24844;52.380;7.018;2023-05-19T09:25:31;7.60;;;2.10;;
39098;SDS011;24844;52.380;7.018;2023-05-19T09:27:57;5.32;;;1.75;;
39098;SDS011;24844;52.380;7.018;2023-05-19T09:30:23;5.57;;;1.88;;
39098;SDS011;24844;52.380;7.018;2023-05-19T09:32:49;5.90;;;2.17;;
39098;SDS011;24844;52.380;7.018;2023-05-19T09:35:15;8.15;;;2.47;;
39098;SDS011;24844;52.380;7.018;2023-05-19T09:37:44;4.82;;;1.92;;
39098;SDS011;24844;52.380;7.018;2023-05-19T09:40:12;5.55;;;1.73;;
39098;SDS011;24844;52.380;7.018;2023-05-19T09:42:38;4.68;;;1.70;;
39098;SDS011;24844;52.380;7.018;2023-05-19T09:45:05;7.88;;;2.00;;
39098;SDS011;24844;52.380;7.018;2023-05-19T09:47:33;3.60;;;1.48;;
39098;SDS011;24844;52.380;7.018;2023-05-19T09:50:00;7.90;;;1.60;;
39098;SDS011;24844;52.380;7.018;2023-05-19T09:52:26;5.90;;;1.85;;
39098;SDS011;24844;52.380;7.018;2023-05-19T09:54:52;5.35;;;1.90;;
39098;SDS011;24844;52.380;7.018;2023-05-19T09:57:24;8.40;;;1.87;;
39098;SDS011;24844;52.380;7.018;2023-05-19T09:59:52;7.15;;;2.08;;
39098;SDS011;24844;52.380;7.018;2023-05-19T10:02:20;7.38;;;1.60;;
39098;SDS011;24844;52.380;7.018;2023-05-19T10:04:49;4.85;;;1.77;;
39098;SDS011;24844;52.380;7.018;2023-05-19T10:07:16;7.22;;;1.75;;
39098;SDS011;24844;52.380;7.018;2023-05-19T10:09:43;5.72;;;1.80;;
39098;SDS011;24844;52.380;7.018;2023-05-19T10:12:09;5.13;;;1.75;;
39098;SDS011;24844;52.380;7.018;2023-05-19T10:14:36;5.68;;;1.50;;
39098;SDS011;24844;52.380;7.018;2023-05-19T10:17:02;3.95;;;1.42;;
39098;SDS011;24844;52.380;7.018;2023-05-19T10:19:28;6.57;;;1.65;;
39098;SDS011;24844;52.380;7.018;2023-05-19T10:21:53;10.30;;;1.50;;
39098;SDS011;24844;52.380;7.018;2023-05-19T10:24:19;8.45;;;2.03;;
39098;SDS011;24844;52.380;7.018;2023-05-19T10:26:48;4.95;;;1.60;;
39098;SDS011;24844;52.380;7.018;2023-05-19T10:29:20;6.30;;;1.90;;
39098;SDS011;24844;52.380;7.018;2023-05-19T10:31:49;7.70;;;2.00;;
39098;SDS011;24844;52.380;7.018;2023-05-19T10:34:33;6.55;;;2.08;;
39098;SDS011;24844;52.380;7.018;2023-05-19T10:37:36;6.32;;;1.60;;
39098;SDS011;24844;52.380;7.018;2023-05-19T10:40:24;7.03;;;1.90;;
39098;SDS011;24844;52.380;7.018;2023-05-19T10:42:56;3.53;;;1.30;;
39098;SDS011;24844;52.380;7.018;2023-05-19T10:45:35;4.65;;;1.48;;
39098;SDS011;24844;52.380;7.018;2023-05-19T10:48:14;3.60;;;1.40;;
39098;SDS011;24844;52.380;7.018;2023-05-19T10:50:44;6.32;;;1.60;;
39098;SDS011;24844;52.380;7.018;2023-05-19T10:53:13;4.68;;;1.65;;
39098;SDS011;24844;52.380;7.018;2023-05-19T10:56:00;6.60;;;1.67;;
39098;SDS011;24844;52.380;7.018;2023-05-19T10:58:37;11.13;;;2.00;;
39098;SDS011;24844;52.380;7.018;2023-05-19T11:01:12;7.57;;;1.80;;
39098;SDS011;24844;52.380;7.018;2023-05-19T11:03:42;6.00;;;1.83;;
39098;SDS011;24844;52.380;7.018;2023-05-19T11:06:26;5.28;;;1.42;;
39098;SDS011;24844;52.380;7.018;2023-05-19T11:08:56;7.72;;;1.90;;
39098;SDS011;24844;52.380;7.018;2023-05-19T11:11:22;8.27;;;1.98;;
39098;SDS011;24844;52.380;7.018;2023-05-19T11:13:51;7.97;;;1.80;;
39098;SDS011;24844;52.380;7.018;2023-05-19T11:16:25;4.70;;;1.20;;
39098;SDS011;24844;52.380;7.018;2023-05-19T11:18:57;8.77;;;2.35;;
39098;SDS011;24844;52.380;7.018;2023-05-19T11:21:23;4.93;;;1.50;;
39098;SDS011;24844;52.380;7.018;2023-05-19T11:24:06;6.50;;;1.80;;
39098;SDS011;24844;52.380;7.018;2023-05-19T11:26:39;5.75;;;1.58;;
39098;SDS011;24844;52.380;7.018;2023-05-19T11:29:09;7.60;;;1.88;;
39098;SDS011;24844;52.380;7.018;2023-05-19T11:31:34;8.63;;;2.03;;
39098;SDS011;24844;52.380;7.018;2023-05-19T11:34:01;5.72;;;1.58;;
39098;SDS011;24844;52.380;7.018;2023-05-19T11:36:29;7.55;;;2.03;;
39098;SDS011;24844;52.380;7.018;2023-05-19T11:38:56;9.02;;;2.20;;
39098;SDS011;24844;52.380;7.018;2023-05-19T11:41:23;5.53;;;2.08;;
39098;SDS011;24844;52.380;7.018;2023-05-19T11:43:49;8.63;;;1.85;;
39098;SDS011;24844;52.380;7.018;2023-05-19T11:46:14;8.90;;;2.45;;
39098;SDS011;24844;52.380;7.018;2023-05-19T11:48:40;5.80;;;1.85;;
39098;SDS011;24844;52.380;7.018;2023-05-19T11:51:06;6.97;;;1.88;;
39098;SDS011;24844;52.380;7.018;2023-05-19T11:53:31;7.75;;;2.22;;
39098;SDS011;24844;52.380;7.018;2023-05-19T11:56:02;5.97;;;1.95;;
39098;SDS011;24844;52.380;7.018;2023-05-19T11:58:28;4.30;;;1.23;;
39098;SDS011;24844;52.380;7.018;2023-05-19T12:00:54;6.18;;;1.90;;
39098;SDS011;24844;52.380;7.018;2023-05-19T12:03:20;6.10;;;1.83;;
39098;SDS011;24844;52.380;7.018;2023-05-19T12:05:47;4.63;;;1.45;;
39098;SDS011;24844;52.380;7.018;2023-05-19T12:08:13;6.03;;;1.83;;
39098;SDS011;24844;52.380;7.018;2023-05-19T12:10:40;7.22;;;1.95;;
39098;SDS011;24844;52.380;7.018;2023-05-19T12:13:06;7.18;;;1.70;;
39098;SDS011;24844;52.380;7.018;2023-05-19T12:15:33;5.35;;;1.65;;
39098;SDS011;24844;52.380;7.018;2023-05-19T12:17:59;10.48;;;2.15;;
39098;SDS011;24844;52.380;7.018;2023-05-19T12:20:26;6.68;;;1.80;;
39098;SDS011;24844;52.380;7.018;2023-05-19T12:22:56;6.93;;;1.60;;
39098;SDS011;24844;52.380;7.018;2023-05-19T12:25:22;7.90;;;2.30;;
39098;SDS011;24844;52.380;7.018;2023-05-19T12:27:48;7.63;;;1.70;;
39098;SDS011;24844;52.380;7.018;2023-05-19T12:30:16;5.57;;;1.70;;
39098;SDS011;24844;52.380;7.018;2023-05-19T12:32:44;8.05;;;1.55;;
39098;SDS011;24844;52.380;7.018;2023-05-19T12:35:10;6.20;;;1.83;;
39098;SDS011;24844;52.380;7.018;2023-05-19T12:37:36;5.05;;;1.58;;
39098;SDS011;24844;52.380;7.018;2023-05-19T12:40:05;6.35;;;1.95;;
39098;SDS011;24844;52.380;7.018;2023-05-19T12:42:31;5.88;;;1.55;;
39098;SDS011;24844;52.380;7.018;2023-05-19T12:44:59;5.00;;;1.70;;
39098;SDS011;24844;52.380;7.018;2023-05-19T12:47:28;4.55;;;1.17;;
39098;SDS011;24844;52.380;7.018;2023-05-19T12:52:29;5.95;;;1.70;;
39098;SDS011;24844;52.380;7.018;2023-05-19T12:54:57;8.82;;;2.05;;
39098;SDS011;24844;52.380;7.018;2023-05-19T12:57:26;8.35;;;2.00;;
39098;SDS011;24844;52.380;7.018;2023-05-19T12:59:59;5.57;;;1.85;;
39098;SDS011;24844;52.380;7.018;2023-05-19T13:02:26;4.60;;;1.40;;
39098;SDS011;24844;52.380;7.018;2023-05-19T13:04:51;7.75;;;1.70;;
39098;SDS011;24844;52.380;7.018;2023-05-19T13:07:18;8.35;;;1.88;;
39098;SDS011;24844;52.380;7.018;2023-05-19T13:09:44;5.47;;;1.88;;
39098;SDS011;24844;52.380;7.018;2023-05-19T13:12:10;4.65;;;1.40;;
39098;SDS011;24844;52.380;7.018;2023-05-19T13:14:35;6.57;;;1.60;;
39098;SDS011;24844;52.380;7.018;2023-05-19T13:17:01;2.70;;;1.30;;
39098;SDS011;24844;52.380;7.018;2023-05-19T13:19:27;5.93;;;1.90;;
39098;SDS011;24844;52.380;7.018;2023-05-19T13:21:53;5.57;;;1.98;;
39098;SDS011;24844;52.380;7.018;2023-05-19T13:24:18;7.25;;;2.20;;
39098;SDS011;24844;52.380;7.018;2023-05-19T13:26:44;4.70;;;1.60;;
39098;SDS011;24844;52.380;7.018;2023-05-19T13:29:09;5.95;;;1.48;;
39098;SDS011;24844;52.380;7.018;2023-05-19T13:31:36;3.45;;;1.35;;
39098;SDS011;24844;52.380;7.018;2023-05-19T13:34:01;5.70;;;1.52;;
39098;SDS011;24844;52.380;7.018;2023-05-19T13:36:27;9.43;;;2.10;;
39098;SDS011;24844;52.380;7.018;2023-05-19T13:38:53;5.15;;;1.67;;
39098;SDS011;24844;52.380;7.018;2023-05-19T13:41:22;5.55;;;1.70;;
39098;SDS011;24844;52.380;7.018;2023-05-19T13:43:49;7.63;;;1.58;;
39098;SDS011;24844;52.380;7.018;2023-05-19T13:46:14;5.63;;;1.38;;
39098;SDS011;24844;52.380;7.018;2023-05-19T13:48:40;7.78;;;2.00;;
39098;SDS011;24844;52.380;7.018;2023-05-19T13:51:05;5.70;;;1.83;;
39098;SDS011;24844;52.380;7.018;2023-05-19T13:53:31;3.65;;;1.30;;
39098;SDS011;24844;52.380;7.018;2023-05-19T13:55:58;5.75;;;1.55;;
39098;SDS011;24844;52.380;7.018;2023-05-19T13:58:24;3.05;;;1.25;;
39098;SDS011;24844;52.380;7.018;2023-05-19T14:00:50;5.47;;;1.30;;
39098;SDS011;24844;52.380;7.018;2023-05-19T14:03:18;6.25;;;1.77;;
39098;SDS011;24844;52.380;7.018;2023-05-19T14:05:46;3.53;;;1.42;;
39098;SDS011;24844;52.380;7.018;2023-05-19T14:08:12;4.05;;;1.38;;
39098;SDS011;24844;52.380;7.018;2023-05-19T14:10:38;7.50;;;2.00;;
39098;SDS011;24844;52.380;7.018;2023-05-19T14:13:03;7.38;;;1.50;;
39098;SDS011;24844;52.380;7.018;2023-05-19T14:15:29;7.65;;;1.67;;
39098;SDS011;24844;52.380;7.018;2023-05-19T14:17:58;5.68;;;1.80;;
39098;SDS011;24844;52.380;7.018;2023-05-19T14:20:24;4.65;;;1.65;;
39098;SDS011;24844;52.380;7.018;2023-05-19T14:22:49;15.57;;;2.35;;
39098;SDS011;24844;52.380;7.018;2023-05-19T14:25:15;5.65;;;1.25;;
39098;SDS011;24844;52.380;7.018;2023-05-19T14:27:40;3.72;;;1.63;;
39098;SDS011;24844;52.380;7.018;2023-05-19T14:30:06;4.38;;;1.55;;
39098;SDS011;24844;52.380;7.018;2023-05-19T14:32:32;4.28;;;1.45;;
39098;SDS011;24844;52.380;7.018;2023-05-19T14:34:58;5.53;;;1.60;;
39098;SDS011;24844;52.380;7.018;2023-05-19T14:37:23;5.60;;;1.83;;
39098;SDS011;24844;52.380;7.018;2023-05-19T14:39:52;3.67;;;1.25;;
39098;SDS011;24844;52.380;7.018;2023-05-19T14:42:18;3.20;;;1.38;;
39098;SDS011;24844;52.380;7.018;2023-05-19T14:44:43;3.47;;;1.42;;
39098;SDS011;24844;52.380;7.018;2023-05-19T14:47:09;4.50;;;1.83;;
39098;SDS011;24844;52.380;7.018;2023-05-19T14:49:36;4.90;;;1.60;;
39098;SDS011;24844;52.380;7.018;2023-05-19T14:52:02;6.57;;;1.77;;
39098;SDS011;24844;52.380;7.018;2023-05-19T14:54:27;6.20;;;1.63;;
39098;SDS011;24844;52.380;7.018;2023-05-19T14:56:53;6.07;;;1.75;;
39098;SDS011;24844;52.380;7.018;2023-05-19T14:59:18;5.68;;;1.85;;
39098;SDS011;24844;52.380;7.018;2023-05-19T15:01:45;7.70;;;1.50;;